Aérodrome :
LOGIN :

S'inscrire | Disclaimer

   EN    FR    IT 

 










Légende :    VFR   VFR Marginal   IFR   IFR Intensif   IFR Très Intensif
Visi : 
Plafond : 
>= 8 km
>= 3000ft
5 à 8 km
1000 à 3000 ft
1500m à 5 km
500 à 1000 ft
800 à 1500m
200 à 500 ft
< 800m
< 200 ft
Symboles :   Orages  Brouillard  Fortes neiges  Fortes précipitations  Vent > 20 kt
SIGMETs :   Divers  Orages  Givrage  Turbulence  Onde Orograph.  Cendres Volcan.






- Altitude de l'aérodrome : 1300 ft
- Code IATA : LIG


LFBL - Limoges

DERNIER METAR :
  • 202230Z AUTO 18016KT 9999 OVC038 08/06 Q1000 BECMG 18016G28KT

METARs EXPIRÉS :
  • 202200Z AUTO 18016KT 9999 OVC041 08/06 Q1000 BECMG 18016G28KT
  • 202130Z AUTO 19019KT 9999 -RA OVC042 09/05 Q1000 BECMG 18016G28KT
  • 202100Z AUTO 19019KT 9999 -RA BKN043 OVC050 09/05 Q1000 BECMG 18016G28KT
  • 202030Z AUTO 18016KT CAVOK 10/04 Q1000 BECMG 18016G28KT
  • 202000Z AUTO 18019KT CAVOK 10/05 Q0999 BECMG 18016G28KT

TAF TAF LFBL
Valide du 20 à 18h jusqu'au 21 à 18h UTC


201700Z 2018/2118 18016G28KT CAVOK
BECMG 2021/2023 BKN030 BKN070
BECMG 2103/2105 -RA BKN012
TEMPO 2105/2110 3000 RA BKN004
TEMPO 2114/2118 4000 SHRA BKN010 BKN020TCU
ATIS : +33 5 55 48 40 37



MET'MAP, la Météo Aéronautique d'un coup d'oeil ! - Copyright ORBIFLY Décembre 2007 - Disclaimer

ORBIFLY MET'MAP TEAM :

Programmation & Développement : Alexandra Zaïnal
Sur une idée originale de : Baudouin d'Aumeries
Assistance à la programmation : Marc-Olivier Méhu
Soutien technique & logistique : Manuel Goepfert

Contact : metmap@orbifly.com




SOURCES & CREDITS :

   NOAA